sensor_id;sensor_type;location;lat;lon;timestamp;P1;durP1;ratioP1;P2;durP2;ratioP2
59458;SDS011;45269;43.568;22.244;2023-12-20T00:01:26;370.77;;;269.05;;
59458;SDS011;45269;43.568;22.244;2023-12-20T00:03:51;355.02;;;250.40;;
59458;SDS011;45269;43.568;22.244;2023-12-20T00:06:16;333.88;;;238.68;;
59458;SDS011;45269;43.568;22.244;2023-12-20T00:08:42;309.70;;;222.90;;
59458;SDS011;45269;43.568;22.244;2023-12-20T00:11:07;328.85;;;218.68;;
59458;SDS011;45269;43.568;22.244;2023-12-20T00:13:33;338.23;;;245.07;;
59458;SDS011;45269;43.568;22.244;2023-12-20T00:15:58;295.67;;;214.25;;
59458;SDS011;45269;43.568;22.244;2023-12-20T00:18:23;369.55;;;259.23;;
59458;SDS011;45269;43.568;22.244;2023-12-20T00:20:49;353.27;;;262.98;;
59458;SDS011;45269;43.568;22.244;2023-12-20T00:23:14;337.35;;;240.40;;
59458;SDS011;45269;43.568;22.244;2023-12-20T00:25:39;317.33;;;229.18;;
59458;SDS011;45269;43.568;22.244;2023-12-20T00:28:05;345.58;;;254.55;;
59458;SDS011;45269;43.568;22.244;2023-12-20T00:30:31;324.30;;;255.75;;
59458;SDS011;45269;43.568;22.244;2023-12-20T00:32:56;306.15;;;230.60;;
59458;SDS011;45269;43.568;22.244;2023-12-20T00:35:21;211.75;;;164.73;;
59458;SDS011;45269;43.568;22.244;2023-12-20T00:37:47;185.70;;;141.20;;
59458;SDS011;45269;43.568;22.244;2023-12-20T00:40:12;238.52;;;179.30;;
59458;SDS011;45269;43.568;22.244;2023-12-20T00:42:37;201.50;;;150.38;;
59458;SDS011;45269;43.568;22.244;2023-12-20T00:45:03;146.23;;;111.40;;
59458;SDS011;45269;43.568;22.244;2023-12-20T00:47:30;206.30;;;162.38;;
59458;SDS011;45269;43.568;22.244;2023-12-20T00:49:55;176.07;;;134.68;;
59458;SDS011;45269;43.568;22.244;2023-12-20T00:52:20;190.82;;;149.75;;
59458;SDS011;45269;43.568;22.244;2023-12-20T00:54:47;185.27;;;141.40;;
59458;SDS011;45269;43.568;22.244;2023-12-20T00:57:13;119.00;;;83.32;;
59458;SDS011;45269;43.568;22.244;2023-12-20T00:59:38;131.55;;;104.25;;
59458;SDS011;45269;43.568;22.244;2023-12-20T01:02:04;152.77;;;121.13;;
59458;SDS011;45269;43.568;22.244;2023-12-20T01:04:29;115.55;;;90.43;;
59458;SDS011;45269;43.568;22.244;2023-12-20T01:06:54;105.78;;;83.10;;
59458;SDS011;45269;43.568;22.244;2023-12-20T01:09:20;109.18;;;86.97;;
59458;SDS011;45269;43.568;22.244;2023-12-20T01:11:48;106.32;;;86.28;;
59458;SDS011;45269;43.568;22.244;2023-12-20T01:14:13;140.40;;;115.80;;
59458;SDS011;45269;43.568;22.244;2023-12-20T01:16:39;166.23;;;132.48;;
59458;SDS011;45269;43.568;22.244;2023-12-20T01:19:04;112.35;;;91.95;;
59458;SDS011;45269;43.568;22.244;2023-12-20T01:21:30;186.48;;;142.82;;
59458;SDS011;45269;43.568;22.244;2023-12-20T01:23:55;187.60;;;145.52;;
59458;SDS011;45269;43.568;22.244;2023-12-20T01:26:20;124.03;;;94.05;;
59458;SDS011;45269;43.568;22.244;2023-12-20T01:28:46;81.53;;;66.35;;
59458;SDS011;45269;43.568;22.244;2023-12-20T01:31:11;86.88;;;70.45;;
59458;SDS011;45269;43.568;22.244;2023-12-20T01:33:36;81.85;;;62.08;;
59458;SDS011;45269;43.568;22.244;2023-12-20T01:36:02;112.07;;;88.80;;
59458;SDS011;45269;43.568;22.244;2023-12-20T01:38:27;130.52;;;100.10;;
59458;SDS011;45269;43.568;22.244;2023-12-20T01:40:53;124.32;;;89.40;;
59458;SDS011;45269;43.568;22.244;2023-12-20T01:43:18;90.53;;;66.38;;
59458;SDS011;45269;43.568;22.244;2023-12-20T01:45:43;82.40;;;65.07;;
59458;SDS011;45269;43.568;22.244;2023-12-20T01:48:09;98.00;;;77.28;;
59458;SDS011;45269;43.568;22.244;2023-12-20T01:50:35;131.25;;;97.03;;
59458;SDS011;45269;43.568;22.244;2023-12-20T01:53:01;70.07;;;57.70;;
59458;SDS011;45269;43.568;22.244;2023-12-20T01:55:27;74.10;;;58.75;;
59458;SDS011;45269;43.568;22.244;2023-12-20T01:57:54;113.22;;;90.95;;
59458;SDS011;45269;43.568;22.244;2023-12-20T02:00:20;90.50;;;68.95;;
59458;SDS011;45269;43.568;22.244;2023-12-20T02:02:48;94.00;;;73.57;;
59458;SDS011;45269;43.568;22.244;2023-12-20T02:05:15;89.97;;;67.72;;
59458;SDS011;45269;43.568;22.244;2023-12-20T02:07:41;60.70;;;47.28;;
59458;SDS011;45269;43.568;22.244;2023-12-20T02:10:06;116.35;;;90.22;;
59458;SDS011;45269;43.568;22.244;2023-12-20T02:12:32;252.70;;;179.40;;
59458;SDS011;45269;43.568;22.244;2023-12-20T02:14:58;89.53;;;68.47;;
59458;SDS011;45269;43.568;22.244;2023-12-20T02:17:23;297.63;;;213.15;;
59458;SDS011;45269;43.568;22.244;2023-12-20T02:19:49;175.00;;;125.60;;
59458;SDS011;45269;43.568;22.244;2023-12-20T02:22:14;291.13;;;231.05;;
59458;SDS011;45269;43.568;22.244;2023-12-20T02:24:40;116.55;;;90.68;;
59458;SDS011;45269;43.568;22.244;2023-12-20T02:27:06;101.32;;;80.38;;
59458;SDS011;45269;43.568;22.244;2023-12-20T02:29:32;99.13;;;75.03;;
59458;SDS011;45269;43.568;22.244;2023-12-20T02:31:57;88.00;;;65.93;;
59458;SDS011;45269;43.568;22.244;2023-12-20T02:34:23;61.50;;;50.85;;
59458;SDS011;45269;43.568;22.244;2023-12-20T02:36:48;59.92;;;50.65;;
59458;SDS011;45269;43.568;22.244;2023-12-20T02:39:14;93.65;;;76.55;;
59458;SDS011;45269;43.568;22.244;2023-12-20T02:41:39;63.60;;;51.03;;
59458;SDS011;45269;43.568;22.244;2023-12-20T02:44:04;50.80;;;42.35;;
59458;SDS011;45269;43.568;22.244;2023-12-20T02:46:30;40.60;;;32.90;;
59458;SDS011;45269;43.568;22.244;2023-12-20T02:48:55;37.63;;;31.65;;
59458;SDS011;45269;43.568;22.244;2023-12-20T02:51:20;43.97;;;36.70;;
59458;SDS011;45269;43.568;22.244;2023-12-20T02:53:46;74.18;;;57.95;;
59458;SDS011;45269;43.568;22.244;2023-12-20T02:56:11;53.20;;;45.35;;
59458;SDS011;45269;43.568;22.244;2023-12-20T02:58:36;32.90;;;27.45;;
59458;SDS011;45269;43.568;22.244;2023-12-20T03:01:02;40.50;;;33.15;;
59458;SDS011;45269;43.568;22.244;2023-12-20T03:03:27;48.30;;;37.38;;
59458;SDS011;45269;43.568;22.244;2023-12-20T03:05:53;37.47;;;30.90;;
59458;SDS011;45269;43.568;22.244;2023-12-20T03:08:18;51.38;;;40.50;;
59458;SDS011;45269;43.568;22.244;2023-12-20T03:10:43;35.92;;;28.50;;
59458;SDS011;45269;43.568;22.244;2023-12-20T03:13:09;40.97;;;32.47;;
59458;SDS011;45269;43.568;22.244;2023-12-20T03:15:34;51.15;;;37.28;;
59458;SDS011;45269;43.568;22.244;2023-12-20T03:17:59;65.22;;;46.58;;
59458;SDS011;45269;43.568;22.244;2023-12-20T03:20:25;44.55;;;34.53;;
59458;SDS011;45269;43.568;22.244;2023-12-20T03:22:53;47.97;;;38.28;;
59458;SDS011;45269;43.568;22.244;2023-12-20T03:25:18;60.63;;;42.78;;
59458;SDS011;45269;43.568;22.244;2023-12-20T03:27:44;41.47;;;30.55;;
59458;SDS011;45269;43.568;22.244;2023-12-20T03:30:09;46.75;;;34.10;;
59458;SDS011;45269;43.568;22.244;2023-12-20T03:32:35;36.03;;;27.00;;
59458;SDS011;45269;43.568;22.244;2023-12-20T03:35:00;37.38;;;27.67;;
59458;SDS011;45269;43.568;22.244;2023-12-20T03:37:25;32.08;;;24.25;;
59458;SDS011;45269;43.568;22.244;2023-12-20T03:39:51;65.20;;;45.97;;
59458;SDS011;45269;43.568;22.244;2023-12-20T03:42:16;70.75;;;51.25;;
59458;SDS011;45269;43.568;22.244;2023-12-20T03:44:41;43.33;;;32.25;;
59458;SDS011;45269;43.568;22.244;2023-12-20T03:47:07;59.92;;;43.00;;
59458;SDS011;45269;43.568;22.244;2023-12-20T03:49:33;100.22;;;78.07;;
59458;SDS011;45269;43.568;22.244;2023-12-20T03:51:58;179.95;;;137.45;;
59458;SDS011;45269;43.568;22.244;2023-12-20T03:54:23;147.27;;;103.85;;
59458;SDS011;45269;43.568;22.244;2023-12-20T03:56:49;111.65;;;74.30;;
59458;SDS011;45269;43.568;22.244;2023-12-20T03:59:14;93.85;;;62.15;;
59458;SDS011;45269;43.568;22.244;2023-12-20T04:01:42;117.28;;;75.70;;
59458;SDS011;45269;43.568;22.244;2023-12-20T04:04:08;119.53;;;89.15;;
59458;SDS011;45269;43.568;22.244;2023-12-20T04:06:33;151.07;;;110.43;;
59458;SDS011;45269;43.568;22.244;2023-12-20T04:08:58;146.40;;;105.15;;
59458;SDS011;45269;43.568;22.244;2023-12-20T04:11:24;138.00;;;99.93;;
59458;SDS011;45269;43.568;22.244;2023-12-20T04:13:49;135.70;;;100.00;;
59458;SDS011;45269;43.568;22.244;2023-12-20T04:16:14;153.57;;;111.82;;
59458;SDS011;45269;43.568;22.244;2023-12-20T04:18:40;123.25;;;95.43;;
59458;SDS011;45269;43.568;22.244;2023-12-20T04:21:05;119.32;;;94.95;;
59458;SDS011;45269;43.568;22.244;2023-12-20T04:23:31;123.28;;;92.55;;
59458;SDS011;45269;43.568;22.244;2023-12-20T04:25:57;116.28;;;90.47;;
59458;SDS011;45269;43.568;22.244;2023-12-20T04:28:22;115.32;;;89.45;;
59458;SDS011;45269;43.568;22.244;2023-12-20T04:30:47;96.70;;;68.90;;
59458;SDS011;45269;43.568;22.244;2023-12-20T04:33:13;122.60;;;90.10;;
59458;SDS011;45269;43.568;22.244;2023-12-20T04:35:38;96.20;;;74.00;;
59458;SDS011;45269;43.568;22.244;2023-12-20T04:38:05;81.47;;;62.08;;
59458;SDS011;45269;43.568;22.244;2023-12-20T04:40:31;122.82;;;97.20;;
59458;SDS011;45269;43.568;22.244;2023-12-20T04:42:56;51.47;;;40.50;;
59458;SDS011;45269;43.568;22.244;2023-12-20T04:45:21;31.58;;;24.88;;
59458;SDS011;45269;43.568;22.244;2023-12-20T04:47:48;35.58;;;28.40;;
59458;SDS011;45269;43.568;22.244;2023-12-20T04:50:14;39.72;;;32.00;;
59458;SDS011;45269;43.568;22.244;2023-12-20T04:52:39;49.20;;;40.92;;
59458;SDS011;45269;43.568;22.244;2023-12-20T04:55:05;62.88;;;50.60;;
59458;SDS011;45269;43.568;22.244;2023-12-20T04:57:30;62.20;;;51.70;;
59458;SDS011;45269;43.568;22.244;2023-12-20T04:59:56;43.20;;;35.67;;
59458;SDS011;45269;43.568;22.244;2023-12-20T05:02:21;37.67;;;31.77;;
59458;SDS011;45269;43.568;22.244;2023-12-20T05:04:47;29.40;;;24.42;;
59458;SDS011;45269;43.568;22.244;2023-12-20T05:07:12;30.38;;;25.75;;
59458;SDS011;45269;43.568;22.244;2023-12-20T05:09:38;59.13;;;44.70;;
59458;SDS011;45269;43.568;22.244;2023-12-20T05:12:03;68.80;;;50.63;;
59458;SDS011;45269;43.568;22.244;2023-12-20T05:14:28;56.83;;;43.50;;
59458;SDS011;45269;43.568;22.244;2023-12-20T05:16:54;55.60;;;46.67;;
59458;SDS011;45269;43.568;22.244;2023-12-20T05:19:19;64.82;;;51.03;;
59458;SDS011;45269;43.568;22.244;2023-12-20T05:21:44;75.70;;;56.45;;
59458;SDS011;45269;43.568;22.244;2023-12-20T05:24:10;101.28;;;67.78;;
59458;SDS011;45269;43.568;22.244;2023-12-20T05:26:35;83.25;;;64.05;;
59458;SDS011;45269;43.568;22.244;2023-12-20T05:29:04;138.27;;;101.20;;
59458;SDS011;45269;43.568;22.244;2023-12-20T05:31:29;129.80;;;94.63;;
59458;SDS011;45269;43.568;22.244;2023-12-20T05:33:54;177.68;;;131.80;;
59458;SDS011;45269;43.568;22.244;2023-12-20T05:36:20;548.03;;;411.10;;
59458;SDS011;45269;43.568;22.244;2023-12-20T05:38:45;344.02;;;255.13;;
59458;SDS011;45269;43.568;22.244;2023-12-20T05:41:10;230.40;;;183.57;;
59458;SDS011;45269;43.568;22.244;2023-12-20T05:43:36;176.10;;;138.30;;
59458;SDS011;45269;43.568;22.244;2023-12-20T05:46:01;305.77;;;231.73;;
59458;SDS011;45269;43.568;22.244;2023-12-20T05:48:27;269.73;;;205.30;;
59458;SDS011;45269;43.568;22.244;2023-12-20T05:50:52;221.18;;;162.75;;
59458;SDS011;45269;43.568;22.244;2023-12-20T05:53:18;139.05;;;103.03;;
59458;SDS011;45269;43.568;22.244;2023-12-20T05:55:43;219.48;;;161.25;;
59458;SDS011;45269;43.568;22.244;2023-12-20T05:58:08;275.08;;;208.07;;
59458;SDS011;45269;43.568;22.244;2023-12-20T06:00:34;259.15;;;199.73;;
59458;SDS011;45269;43.568;22.244;2023-12-20T06:02:59;269.60;;;210.35;;
59458;SDS011;45269;43.568;22.244;2023-12-20T06:05:24;269.13;;;202.63;;
59458;SDS011;45269;43.568;22.244;2023-12-20T06:07:50;286.50;;;218.18;;
59458;SDS011;45269;43.568;22.244;2023-12-20T06:10:16;227.52;;;175.45;;
59458;SDS011;45269;43.568;22.244;2023-12-20T06:12:41;375.40;;;272.88;;
59458;SDS011;45269;43.568;22.244;2023-12-20T06:15:07;212.43;;;170.38;;
59458;SDS011;45269;43.568;22.244;2023-12-20T06:17:32;165.15;;;141.32;;
59458;SDS011;45269;43.568;22.244;2023-12-20T06:19:58;205.25;;;148.77;;
59458;SDS011;45269;43.568;22.244;2023-12-20T06:22:23;139.77;;;112.97;;
59458;SDS011;45269;43.568;22.244;2023-12-20T06:24:48;175.57;;;134.70;;
59458;SDS011;45269;43.568;22.244;2023-12-20T06:27:14;183.95;;;138.70;;
59458;SDS011;45269;43.568;22.244;2023-12-20T06:29:39;173.50;;;129.93;;
59458;SDS011;45269;43.568;22.244;2023-12-20T06:32:06;173.57;;;136.48;;
59458;SDS011;45269;43.568;22.244;2023-12-20T06:34:31;123.88;;;100.68;;
59458;SDS011;45269;43.568;22.244;2023-12-20T06:36:56;133.45;;;107.40;;
59458;SDS011;45269;43.568;22.244;2023-12-20T06:39:22;168.00;;;137.50;;
59458;SDS011;45269;43.568;22.244;2023-12-20T06:41:47;301.77;;;238.85;;
59458;SDS011;45269;43.568;22.244;2023-12-20T06:44:12;346.63;;;270.63;;
59458;SDS011;45269;43.568;22.244;2023-12-20T06:46:38;375.30;;;310.88;;
59458;SDS011;45269;43.568;22.244;2023-12-20T06:49:03;251.38;;;217.82;;
59458;SDS011;45269;43.568;22.244;2023-12-20T06:51:28;363.98;;;291.33;;
59458;SDS011;45269;43.568;22.244;2023-12-20T06:53:55;327.10;;;264.83;;
59458;SDS011;45269;43.568;22.244;2023-12-20T06:56:21;309.50;;;254.80;;
59458;SDS011;45269;43.568;22.244;2023-12-20T06:58:46;300.83;;;252.90;;
59458;SDS011;45269;43.568;22.244;2023-12-20T07:01:12;382.92;;;300.60;;
59458;SDS011;45269;43.568;22.244;2023-12-20T07:03:38;481.05;;;376.58;;
59458;SDS011;45269;43.568;22.244;2023-12-20T07:06:05;334.45;;;278.60;;
59458;SDS011;45269;43.568;22.244;2023-12-20T07:08:30;255.30;;;213.82;;
59458;SDS011;45269;43.568;22.244;2023-12-20T07:10:55;288.52;;;245.73;;
59458;SDS011;45269;43.568;22.244;2023-12-20T07:13:21;268.08;;;231.43;;
59458;SDS011;45269;43.568;22.244;2023-12-20T07:15:47;267.50;;;225.18;;
59458;SDS011;45269;43.568;22.244;2023-12-20T07:18:13;248.32;;;218.05;;
59458;SDS011;45269;43.568;22.244;2023-12-20T07:20:38;230.63;;;205.23;;
59458;SDS011;45269;43.568;22.244;2023-12-20T07:23:04;273.75;;;239.27;;
59458;SDS011;45269;43.568;22.244;2023-12-20T07:25:29;373.92;;;300.50;;
59458;SDS011;45269;43.568;22.244;2023-12-20T07:27:57;160.15;;;131.15;;
59458;SDS011;45269;43.568;22.244;2023-12-20T07:30:22;238.77;;;185.70;;
59458;SDS011;45269;43.568;22.244;2023-12-20T07:32:48;219.95;;;195.63;;
59458;SDS011;45269;43.568;22.244;2023-12-20T07:35:13;241.70;;;211.23;;
59458;SDS011;45269;43.568;22.244;2023-12-20T07:37:39;318.60;;;260.73;;
59458;SDS011;45269;43.568;22.244;2023-12-20T07:40:04;264.17;;;223.18;;
59458;SDS011;45269;43.568;22.244;2023-12-20T07:42:30;234.73;;;198.15;;
59458;SDS011;45269;43.568;22.244;2023-12-20T07:44:55;180.27;;;145.43;;
59458;SDS011;45269;43.568;22.244;2023-12-20T07:47:21;201.55;;;166.25;;
59458;SDS011;45269;43.568;22.244;2023-12-20T07:49:49;134.52;;;115.97;;
59458;SDS011;45269;43.568;22.244;2023-12-20T07:52:16;197.07;;;166.68;;
59458;SDS011;45269;43.568;22.244;2023-12-20T07:54:41;241.30;;;204.35;;
59458;SDS011;45269;43.568;22.244;2023-12-20T07:57:07;266.17;;;223.60;;
59458;SDS011;45269;43.568;22.244;2023-12-20T07:59:33;259.90;;;228.05;;
59458;SDS011;45269;43.568;22.244;2023-12-20T08:01:58;246.45;;;220.43;;
59458;SDS011;45269;43.568;22.244;2023-12-20T08:04:23;198.93;;;177.27;;
59458;SDS011;45269;43.568;22.244;2023-12-20T08:06:50;164.90;;;147.35;;
59458;SDS011;45269;43.568;22.244;2023-12-20T08:09:15;150.00;;;131.13;;
59458;SDS011;45269;43.568;22.244;2023-12-20T08:11:44;161.50;;;144.15;;
59458;SDS011;45269;43.568;22.244;2023-12-20T08:14:09;187.73;;;167.32;;
59458;SDS011;45269;43.568;22.244;2023-12-20T08:16:35;142.18;;;124.30;;
59458;SDS011;45269;43.568;22.244;2023-12-20T08:19:00;159.68;;;137.73;;
59458;SDS011;45269;43.568;22.244;2023-12-20T08:21:26;243.52;;;217.35;;
59458;SDS011;45269;43.568;22.244;2023-12-20T08:23:51;228.82;;;203.85;;
59458;SDS011;45269;43.568;22.244;2023-12-20T08:26:18;154.82;;;131.98;;
59458;SDS011;45269;43.568;22.244;2023-12-20T08:28:43;110.03;;;94.20;;
59458;SDS011;45269;43.568;22.244;2023-12-20T08:31:13;247.35;;;212.55;;
59458;SDS011;45269;43.568;22.244;2023-12-20T08:36:04;452.30;;;367.13;;
59458;SDS011;45269;43.568;22.244;2023-12-20T08:38:30;258.15;;;204.48;;
59458;SDS011;45269;43.568;22.244;2023-12-20T08:40:56;180.20;;;151.18;;
59458;SDS011;45269;43.568;22.244;2023-12-20T08:43:21;120.28;;;98.07;;
59458;SDS011;45269;43.568;22.244;2023-12-20T08:45:46;170.90;;;140.73;;
59458;SDS011;45269;43.568;22.244;2023-12-20T08:48:12;362.10;;;271.40;;
59458;SDS011;45269;43.568;22.244;2023-12-20T08:50:37;334.92;;;238.50;;
59458;SDS011;45269;43.568;22.244;2023-12-20T08:53:03;267.70;;;184.73;;
59458;SDS011;45269;43.568;22.244;2023-12-20T08:55:29;262.67;;;183.27;;
59458;SDS011;45269;43.568;22.244;2023-12-20T08:57:56;149.77;;;117.95;;
59458;SDS011;45269;43.568;22.244;2023-12-20T09:00:21;236.48;;;182.95;;
59458;SDS011;45269;43.568;22.244;2023-12-20T09:02:49;233.25;;;199.65;;
59458;SDS011;45269;43.568;22.244;2023-12-20T09:05:14;245.20;;;207.93;;
59458;SDS011;45269;43.568;22.244;2023-12-20T09:07:40;242.00;;;191.68;;
59458;SDS011;45269;43.568;22.244;2023-12-20T09:10:05;236.75;;;183.18;;
59458;SDS011;45269;43.568;22.244;2023-12-20T09:12:31;234.77;;;156.18;;
59458;SDS011;45269;43.568;22.244;2023-12-20T09:14:56;262.08;;;204.32;;
59458;SDS011;45269;43.568;22.244;2023-12-20T09:17:21;362.98;;;254.07;;
59458;SDS011;45269;43.568;22.244;2023-12-20T09:19:51;330.83;;;230.38;;
59458;SDS011;45269;43.568;22.244;2023-12-20T09:22:19;176.68;;;145.77;;
59458;SDS011;45269;43.568;22.244;2023-12-20T09:24:44;370.77;;;224.40;;
59458;SDS011;45269;43.568;22.244;2023-12-20T09:27:09;245.68;;;144.70;;
59458;SDS011;45269;43.568;22.244;2023-12-20T09:29:35;75.43;;;52.67;;
59458;SDS011;45269;43.568;22.244;2023-12-20T09:32:01;91.10;;;70.30;;
59458;SDS011;45269;43.568;22.244;2023-12-20T09:34:26;749.63;;;445.27;;
59458;SDS011;45269;43.568;22.244;2023-12-20T09:36:52;263.33;;;169.25;;
59458;SDS011;45269;43.568;22.244;2023-12-20T09:39:18;274.55;;;163.30;;
59458;SDS011;45269;43.568;22.244;2023-12-20T09:42:03;268.70;;;160.73;;
59458;SDS011;45269;43.568;22.244;2023-12-20T09:44:29;217.07;;;166.88;;
59458;SDS011;45269;43.568;22.244;2023-12-20T09:46:55;253.10;;;212.50;;
59458;SDS011;45269;43.568;22.244;2023-12-20T09:49:21;217.02;;;182.45;;
59458;SDS011;45269;43.568;22.244;2023-12-20T09:51:47;291.90;;;235.35;;
59458;SDS011;45269;43.568;22.244;2023-12-20T09:54:16;305.42;;;231.40;;
59458;SDS011;45269;43.568;22.244;2023-12-20T09:56:42;197.80;;;159.32;;
59458;SDS011;45269;43.568;22.244;2023-12-20T09:59:07;158.90;;;137.00;;
59458;SDS011;45269;43.568;22.244;2023-12-20T10:01:33;138.88;;;109.50;;
59458;SDS011;45269;43.568;22.244;2023-12-20T10:03:59;399.80;;;278.02;;
59458;SDS011;45269;43.568;22.244;2023-12-20T10:06:25;266.13;;;171.63;;
59458;SDS011;45269;43.568;22.244;2023-12-20T10:08:50;267.58;;;158.55;;
59458;SDS011;45269;43.568;22.244;2023-12-20T10:11:16;212.18;;;115.32;;
59458;SDS011;45269;43.568;22.244;2023-12-20T10:13:42;136.82;;;79.97;;
59458;SDS011;45269;43.568;22.244;2023-12-20T10:16:08;193.70;;;137.57;;
59458;SDS011;45269;43.568;22.244;2023-12-20T10:18:33;197.80;;;151.48;;
59458;SDS011;45269;43.568;22.244;2023-12-20T10:20:58;58.30;;;46.20;;
59458;SDS011;45269;43.568;22.244;2023-12-20T10:23:24;531.90;;;331.95;;
59458;SDS011;45269;43.568;22.244;2023-12-20T10:25:57;214.73;;;134.40;;
59458;SDS011;45269;43.568;22.244;2023-12-20T10:28:23;128.23;;;91.30;;
59458;SDS011;45269;43.568;22.244;2023-12-20T10:30:52;91.72;;;77.30;;
59458;SDS011;45269;43.568;22.244;2023-12-20T10:33:24;101.85;;;86.35;;
59458;SDS011;45269;43.568;22.244;2023-12-20T10:35:51;106.55;;;89.53;;
59458;SDS011;45269;43.568;22.244;2023-12-20T10:38:17;90.07;;;69.05;;
59458;SDS011;45269;43.568;22.244;2023-12-20T10:40:42;226.40;;;142.05;;
59458;SDS011;45269;43.568;22.244;2023-12-20T10:43:08;147.85;;;104.68;;
59458;SDS011;45269;43.568;22.244;2023-12-20T10:45:33;145.77;;;116.05;;
59458;SDS011;45269;43.568;22.244;2023-12-20T10:47:59;200.45;;;167.77;;
59458;SDS011;45269;43.568;22.244;2023-12-20T10:50:25;131.63;;;114.60;;
59458;SDS011;45269;43.568;22.244;2023-12-20T10:52:51;160.13;;;134.82;;
59458;SDS011;45269;43.568;22.244;2023-12-20T10:55:21;85.25;;;74.35;;
59458;SDS011;45269;43.568;22.244;2023-12-20T10:57:46;60.40;;;50.55;;
59458;SDS011;45269;43.568;22.244;2023-12-20T11:00:16;72.25;;;60.60;;
59458;SDS011;45269;43.568;22.244;2023-12-20T11:02:42;77.50;;;67.78;;
59458;SDS011;45269;43.568;22.244;2023-12-20T11:08:01;59.15;;;50.08;;
59458;SDS011;45269;43.568;22.244;2023-12-20T11:10:30;117.93;;;101.20;;
59458;SDS011;45269;43.568;22.244;2023-12-20T11:12:59;130.60;;;108.95;;
59458;SDS011;45269;43.568;22.244;2023-12-20T11:15:25;108.28;;;92.15;;
59458;SDS011;45269;43.568;22.244;2023-12-20T11:17:55;69.43;;;58.15;;
59458;SDS011;45269;43.568;22.244;2023-12-20T11:20:22;43.53;;;35.08;;
59458;SDS011;45269;43.568;22.244;2023-12-20T11:22:52;43.78;;;35.22;;
59458;SDS011;45269;43.568;22.244;2023-12-20T11:25:17;17.50;;;13.77;;
59458;SDS011;45269;43.568;22.244;2023-12-20T11:27:42;19.60;;;17.65;;
59458;SDS011;45269;43.568;22.244;2023-12-20T11:30:08;19.90;;;16.20;;
59458;SDS011;45269;43.568;22.244;2023-12-20T11:32:35;16.25;;;14.25;;
59458;SDS011;45269;43.568;22.244;2023-12-20T11:37:35;13.88;;;12.35;;
59458;SDS011;45269;43.568;22.244;2023-12-20T11:40:02;10.63;;;9.52;;
59458;SDS011;45269;43.568;22.244;2023-12-20T11:42:32;11.68;;;10.48;;
59458;SDS011;45269;43.568;22.244;2023-12-20T11:44:57;14.30;;;12.80;;
59458;SDS011;45269;43.568;22.244;2023-12-20T11:47:24;13.68;;;11.38;;
59458;SDS011;45269;43.568;22.244;2023-12-20T11:49:50;20.80;;;17.75;;
59458;SDS011;45269;43.568;22.244;2023-12-20T11:52:16;16.25;;;14.55;;
59458;SDS011;45269;43.568;22.244;2023-12-20T11:54:41;18.60;;;16.33;;
59458;SDS011;45269;43.568;22.244;2023-12-20T11:57:07;17.73;;;16.13;;
59458;SDS011;45269;43.568;22.244;2023-12-20T11:59:32;19.55;;;17.42;;
59458;SDS011;45269;43.568;22.244;2023-12-20T12:01:58;11.90;;;10.60;;
59458;SDS011;45269;43.568;22.244;2023-12-20T12:04:26;12.43;;;11.13;;
59458;SDS011;45269;43.568;22.244;2023-12-20T12:06:51;25.75;;;21.58;;
59458;SDS011;45269;43.568;22.244;2023-12-20T12:09:16;15.55;;;13.88;;
59458;SDS011;45269;43.568;22.244;2023-12-20T12:11:42;14.65;;;13.15;;
59458;SDS011;45269;43.568;22.244;2023-12-20T12:14:08;10.95;;;8.93;;
59458;SDS011;45269;43.568;22.244;2023-12-20T12:16:33;11.43;;;9.23;;
59458;SDS011;45269;43.568;22.244;2023-12-20T12:18:59;8.60;;;7.30;;
59458;SDS011;45269;43.568;22.244;2023-12-20T12:21:25;13.93;;;11.80;;
59458;SDS011;45269;43.568;22.244;2023-12-20T12:23:51;14.40;;;11.07;;
59458;SDS011;45269;43.568;22.244;2023-12-20T12:26:16;10.60;;;8.40;;
59458;SDS011;45269;43.568;22.244;2023-12-20T12:28:41;8.93;;;8.02;;
59458;SDS011;45269;43.568;22.244;2023-12-20T12:31:07;5.38;;;4.88;;
59458;SDS011;45269;43.568;22.244;2023-12-20T12:33:33;10.68;;;9.55;;
59458;SDS011;45269;43.568;22.244;2023-12-20T12:35:59;11.93;;;9.43;;
59458;SDS011;45269;43.568;22.244;2023-12-20T12:38:24;11.10;;;9.85;;
59458;SDS011;45269;43.568;22.244;2023-12-20T12:40:50;16.25;;;14.57;;
59458;SDS011;45269;43.568;22.244;2023-12-20T12:43:16;21.67;;;16.75;;
59458;SDS011;45269;43.568;22.244;2023-12-20T12:45:41;13.55;;;11.40;;
59458;SDS011;45269;43.568;22.244;2023-12-20T12:48:06;18.92;;;16.67;;
59458;SDS011;45269;43.568;22.244;2023-12-20T12:50:32;10.65;;;9.55;;
59458;SDS011;45269;43.568;22.244;2023-12-20T12:52:57;14.75;;;12.38;;
59458;SDS011;45269;43.568;22.244;2023-12-20T12:55:23;22.02;;;19.80;;
59458;SDS011;45269;43.568;22.244;2023-12-20T12:57:48;20.25;;;18.25;;
59458;SDS011;45269;43.568;22.244;2023-12-20T13:00:13;7.75;;;6.63;;
59458;SDS011;45269;43.568;22.244;2023-12-20T13:02:39;22.65;;;17.58;;
59458;SDS011;45269;43.568;22.244;2023-12-20T13:05:07;31.33;;;26.42;;
59458;SDS011;45269;43.568;22.244;2023-12-20T13:07:33;44.55;;;35.83;;
59458;SDS011;45269;43.568;22.244;2023-12-20T13:09:58;33.97;;;27.70;;
59458;SDS011;45269;43.568;22.244;2023-12-20T13:12:23;18.08;;;14.07;;
59458;SDS011;45269;43.568;22.244;2023-12-20T13:14:49;13.90;;;11.15;;
59458;SDS011;45269;43.568;22.244;2023-12-20T13:17:14;29.48;;;22.95;;
59458;SDS011;45269;43.568;22.244;2023-12-20T13:19:40;61.42;;;51.58;;
59458;SDS011;45269;43.568;22.244;2023-12-20T13:22:05;76.13;;;65.78;;
59458;SDS011;45269;43.568;22.244;2023-12-20T13:24:31;87.68;;;78.20;;
59458;SDS011;45269;43.568;22.244;2023-12-20T13:26:57;79.78;;;69.80;;
59458;SDS011;45269;43.568;22.244;2023-12-20T13:29:23;89.22;;;77.28;;
59458;SDS011;45269;43.568;22.244;2023-12-20T13:31:49;83.65;;;74.43;;
59458;SDS011;45269;43.568;22.244;2023-12-20T13:34:14;118.63;;;103.55;;
59458;SDS011;45269;43.568;22.244;2023-12-20T13:36:42;88.53;;;78.97;;
59458;SDS011;45269;43.568;22.244;2023-12-20T13:39:08;117.30;;;103.88;;
59458;SDS011;45269;43.568;22.244;2023-12-20T13:41:33;143.50;;;124.28;;
59458;SDS011;45269;43.568;22.244;2023-12-20T13:43:58;103.00;;;87.05;;
59458;SDS011;45269;43.568;22.244;2023-12-20T13:46:24;103.22;;;91.07;;
59458;SDS011;45269;43.568;22.244;2023-12-20T13:48:49;76.15;;;65.70;;
59458;SDS011;45269;43.568;22.244;2023-12-20T13:51:15;77.00;;;65.93;;
59458;SDS011;45269;43.568;22.244;2023-12-20T13:53:40;58.15;;;47.92;;
59458;SDS011;45269;43.568;22.244;2023-12-20T13:56:05;43.60;;;38.33;;